sensor_id;sensor_type;location;lat;lon;timestamp;pressure;altitude;pressure_sealevel;temperature;humidity
13029;BME280;6581;42.662;23.402;2023-02-21T00:19:43;95747.72;;;4.93;75.63
13029;BME280;6581;42.662;23.402;2023-02-21T00:30:55;95723.94;;;4.55;75.69
13029;BME280;6581;42.662;23.402;2023-02-21T00:38:53;95727.34;;;4.81;75.43
13029;BME280;6581;42.662;23.402;2023-02-21T00:42:32;95732.28;;;4.74;74.87
13029;BME280;6581;42.662;23.402;2023-02-21T00:46:45;95725.47;;;4.81;74.93
13029;BME280;6581;42.662;23.402;2023-02-21T00:50:11;95717.94;;;4.80;74.65
13029;BME280;6581;42.662;23.402;2023-02-21T00:53:00;95696.31;;;4.66;74.47
13029;BME280;6581;42.662;23.402;2023-02-21T00:56:11;95710.38;;;4.70;75.38
13029;BME280;6581;42.662;23.402;2023-02-21T00:59:18;95693.22;;;4.64;74.71
13029;BME280;6581;42.662;23.402;2023-02-21T01:02:34;95696.75;;;4.68;75.44
13029;BME280;6581;42.662;23.402;2023-02-21T01:06:10;95690.59;;;4.81;75.58
13029;BME280;6581;42.662;23.402;2023-02-21T01:13:52;95682.41;;;4.82;76.02
13029;BME280;6581;42.662;23.402;2023-02-21T01:21:02;95668.06;;;4.71;75.66
13029;BME280;6581;42.662;23.402;2023-02-21T01:24:07;95651.53;;;4.79;75.68
13029;BME280;6581;42.662;23.402;2023-02-21T01:27:33;95637.34;;;4.63;75.42
13029;BME280;6581;42.662;23.402;2023-02-21T01:45:57;95641.50;;;4.64;76.22
13029;BME280;6581;42.662;23.402;2023-02-21T01:49:27;95639.38;;;4.66;76.17
13029;BME280;6581;42.662;23.402;2023-02-21T01:52:45;95649.09;;;4.66;75.90
13029;BME280;6581;42.662;23.402;2023-02-21T02:08:21;95598.88;;;4.84;73.26
13029;BME280;6581;42.662;23.402;2023-02-21T02:39:21;95594.91;;;4.70;75.12
13029;BME280;6581;42.662;23.402;2023-02-21T02:46:55;95599.06;;;4.71;75.98
13029;BME280;6581;42.662;23.402;2023-02-21T03:02:45;95601.22;;;4.69;75.63
13029;BME280;6581;42.662;23.402;2023-02-21T03:07:06;95583.78;;;4.64;75.72
13029;BME280;6581;42.662;23.402;2023-02-21T03:10:35;95604.31;;;4.71;75.55
13029;BME280;6581;42.662;23.402;2023-02-21T03:13:52;95575.31;;;4.67;75.47
13029;BME280;6581;42.662;23.402;2023-02-21T03:17:58;95590.25;;;4.75;75.24
13029;BME280;6581;42.662;23.402;2023-02-21T03:20:42;95580.66;;;4.88;74.26
13029;BME280;6581;42.662;23.402;2023-02-21T03:36:31;95568.50;;;5.21;72.19
13029;BME280;6581;42.662;23.402;2023-02-21T03:39:46;95579.59;;;5.18;72.30
13029;BME280;6581;42.662;23.402;2023-02-21T03:43:37;95587.84;;;5.08;72.48
13029;BME280;6581;42.662;23.402;2023-02-21T04:04:17;95603.41;;;4.67;74.89
13029;BME280;6581;42.662;23.402;2023-02-21T04:44:53;95627.03;;;4.41;76.18
13029;BME280;6581;42.662;23.402;2023-02-21T04:51:37;95626.09;;;4.37;76.90
13029;BME280;6581;42.662;23.402;2023-02-21T04:58:43;95615.16;;;4.52;76.35
13029;BME280;6581;42.662;23.402;2023-02-21T05:01:45;95596.16;;;4.38;76.35
13029;BME280;6581;42.662;23.402;2023-02-21T05:09:13;95590.16;;;4.20;77.41
13029;BME280;6581;42.662;23.402;2023-02-21T05:11:46;95590.16;;;4.20;77.39
13029;BME280;6581;42.662;23.402;2023-02-21T05:14:51;95562.25;;;4.07;77.56
13029;BME280;6581;42.662;23.402;2023-02-21T05:17:34;95594.94;;;4.27;76.84
13029;BME280;6581;42.662;23.402;2023-02-21T05:20:24;95599.09;;;4.19;78.17
13029;BME280;6581;42.662;23.402;2023-02-21T05:23:01;95582.28;;;4.29;77.36
13029;BME280;6581;42.662;23.402;2023-02-21T05:25:45;95597.25;;;4.28;77.51
13029;BME280;6581;42.662;23.402;2023-02-21T05:28:12;95590.94;;;4.12;76.64
13029;BME280;6581;42.662;23.402;2023-02-21T05:30:40;95595.09;;;4.13;77.69
13029;BME280;6581;42.662;23.402;2023-02-21T05:33:08;95602.19;;;4.04;78.14
13029;BME280;6581;42.662;23.402;2023-02-21T05:35:35;95592.94;;;4.07;78.07
13029;BME280;6581;42.662;23.402;2023-02-21T05:38:02;95596.94;;;4.13;78.23
13029;BME280;6581;42.662;23.402;2023-02-21T05:40:55;95601.09;;;4.14;77.98
13029;BME280;6581;42.662;23.402;2023-02-21T05:43:22;95609.28;;;4.12;77.88
13029;BME280;6581;42.662;23.402;2023-02-21T05:45:49;95606.06;;;4.15;78.18
13029;BME280;6581;42.662;23.402;2023-02-21T05:48:18;95608.53;;;4.12;78.13
13029;BME280;6581;42.662;23.402;2023-02-21T05:50:44;95612.66;;;4.13;78.62
13029;BME280;6581;42.662;23.402;2023-02-21T05:53:12;95615.00;;;4.23;78.29
13029;BME280;6581;42.662;23.402;2023-02-21T05:55:39;95607.75;;;4.20;78.15
13029;BME280;6581;42.662;23.402;2023-02-21T05:58:30;95612.22;;;4.28;77.96
13029;BME280;6581;42.662;23.402;2023-02-21T06:00:57;95614.97;;;4.31;77.72
13029;BME280;6581;42.662;23.402;2023-02-21T06:03:25;95622.53;;;4.41;77.82
13029;BME280;6581;42.662;23.402;2023-02-21T06:05:52;95614.34;;;4.60;77.08
13029;BME280;6581;42.662;23.402;2023-02-21T06:08:20;95625.34;;;4.54;77.00
13029;BME280;6581;42.662;23.402;2023-02-21T06:10:47;95623.00;;;4.52;77.59
13029;BME280;6581;42.662;23.402;2023-02-21T06:13:14;95631.50;;;4.66;77.26
13029;BME280;6581;42.662;23.402;2023-02-21T06:15:41;95623.09;;;4.81;76.76
13029;BME280;6581;42.662;23.402;2023-02-21T06:18:11;95631.13;;;4.94;77.08
13029;BME280;6581;42.662;23.402;2023-02-21T06:20:40;95634.66;;;5.06;76.21
13029;BME280;6581;42.662;23.402;2023-02-21T06:23:07;95616.88;;;5.12;74.02
13029;BME280;6581;42.662;23.402;2023-02-21T06:25:34;95631.38;;;5.18;74.36
13029;BME280;6581;42.662;23.402;2023-02-21T06:28:01;95628.47;;;5.11;74.25
13029;BME280;6581;42.662;23.402;2023-02-21T06:30:29;95626.75;;;5.15;74.57
13029;BME280;6581;42.662;23.402;2023-02-21T06:32:56;95635.38;;;5.24;74.36
13029;BME280;6581;42.662;23.402;2023-02-21T06:35:23;95635.50;;;5.36;73.41
13029;BME280;6581;42.662;23.402;2023-02-21T06:37:51;95632.66;;;5.41;72.87
13029;BME280;6581;42.662;23.402;2023-02-21T06:40:19;95633.81;;;5.61;72.20
13029;BME280;6581;42.662;23.402;2023-02-21T06:42:46;95645.66;;;5.75;71.70
13029;BME280;6581;42.662;23.402;2023-02-21T06:45:13;95650.84;;;5.93;70.94
13029;BME280;6581;42.662;23.402;2023-02-21T06:47:40;95649.78;;;6.14;69.66
13029;BME280;6581;42.662;23.402;2023-02-21T06:50:07;95650.97;;;6.26;69.15
13029;BME280;6581;42.662;23.402;2023-02-21T06:52:34;95650.25;;;6.37;68.49
13029;BME280;6581;42.662;23.402;2023-02-21T06:55:03;95646.03;;;6.45;67.77
13029;BME280;6581;42.662;23.402;2023-02-21T06:57:30;95646.72;;;6.54;68.02
13029;BME280;6581;42.662;23.402;2023-02-21T06:59:57;95646.38;;;6.55;66.81
13029;BME280;6581;42.662;23.402;2023-02-21T07:02:24;95640.41;;;6.67;66.04
13029;BME280;6581;42.662;23.402;2023-02-21T07:04:51;95648.63;;;6.65;65.66
13029;BME280;6581;42.662;23.402;2023-02-21T07:07:18;95640.53;;;6.71;65.10
13029;BME280;6581;42.662;23.402;2023-02-21T07:09:45;95637.81;;;6.79;65.17
13029;BME280;6581;42.662;23.402;2023-02-21T07:12:14;95641.59;;;6.90;64.87
13029;BME280;6581;42.662;23.402;2023-02-21T07:14:41;95647.78;;;7.06;63.79
13029;BME280;6581;42.662;23.402;2023-02-21T07:17:08;95647.25;;;7.13;64.05
13029;BME280;6581;42.662;23.402;2023-02-21T07:19:35;95646.50;;;7.25;63.68
13029;BME280;6581;42.662;23.402;2023-02-21T07:22:02;95653.22;;;7.34;63.22
13029;BME280;6581;42.662;23.402;2023-02-21T07:24:53;95647.31;;;7.37;62.74
13029;BME280;6581;42.662;23.402;2023-02-21T07:27:22;95640.28;;;7.53;62.38
13029;BME280;6581;42.662;23.402;2023-02-21T07:29:49;95631.19;;;7.51;61.83
13029;BME280;6581;42.662;23.402;2023-02-21T07:32:17;95621.81;;;7.66;61.61
13029;BME280;6581;42.662;23.402;2023-02-21T07:34:44;95627.66;;;7.83;60.99
13029;BME280;6581;42.662;23.402;2023-02-21T07:37:11;95622.69;;;7.94;60.88
13029;BME280;6581;42.662;23.402;2023-02-21T07:39:38;95615.44;;;8.03;60.04
13029;BME280;6581;42.662;23.402;2023-02-21T07:42:05;95608.78;;;8.21;59.95
13029;BME280;6581;42.662;23.402;2023-02-21T07:44:34;95613.50;;;8.40;59.39
13029;BME280;6581;42.662;23.402;2023-02-21T07:47:01;95609.38;;;8.55;58.24
13029;BME280;6581;42.662;23.402;2023-02-21T07:49:28;95611.78;;;8.60;57.85
13029;BME280;6581;42.662;23.402;2023-02-21T07:51:55;95607.59;;;8.59;57.18
13029;BME280;6581;42.662;23.402;2023-02-21T07:54:23;95601.31;;;8.63;56.88
13029;BME280;6581;42.662;23.402;2023-02-21T07:57:16;95605.03;;;8.74;56.69
13029;BME280;6581;42.662;23.402;2023-02-21T07:59:46;95605.41;;;8.88;56.54
13029;BME280;6581;42.662;23.402;2023-02-21T08:02:14;95594.84;;;9.04;55.89
13029;BME280;6581;42.662;23.402;2023-02-21T08:04:41;95593.06;;;9.08;55.47
13029;BME280;6581;42.662;23.402;2023-02-21T08:07:08;95588.03;;;9.19;55.55
13029;BME280;6581;42.662;23.402;2023-02-21T08:09:35;95591.97;;;9.25;55.35
13029;BME280;6581;42.662;23.402;2023-02-21T08:12:03;95586.16;;;9.35;54.71
13029;BME280;6581;42.662;23.402;2023-02-21T08:14:30;95584.69;;;9.53;54.51
13029;BME280;6581;42.662;23.402;2023-02-21T08:16:59;95593.25;;;9.62;54.12
13029;BME280;6581;42.662;23.402;2023-02-21T08:19:26;95596.28;;;9.64;54.80
13029;BME280;6581;42.662;23.402;2023-02-21T08:21:53;95593.28;;;9.82;53.83
13029;BME280;6581;42.662;23.402;2023-02-21T08:24:20;95590.38;;;9.87;53.43
13029;BME280;6581;42.662;23.402;2023-02-21T08:26:47;95592.81;;;9.95;51.61
13029;BME280;6581;42.662;23.402;2023-02-21T08:29:14;95594.34;;;10.12;51.64
13029;BME280;6581;42.662;23.402;2023-02-21T08:31:42;95582.81;;;10.20;51.58
13029;BME280;6581;42.662;23.402;2023-02-21T08:34:11;95582.31;;;10.34;50.63
13029;BME280;6581;42.662;23.402;2023-02-21T08:36:40;95578.63;;;10.38;50.73
13029;BME280;6581;42.662;23.402;2023-02-21T08:39:08;95578.69;;;10.42;51.25
13029;BME280;6581;42.662;23.402;2023-02-21T08:41:36;95580.31;;;10.65;50.22
13029;BME280;6581;42.662;23.402;2023-02-21T08:44:04;95575.03;;;10.88;49.61
13029;BME280;6581;42.662;23.402;2023-02-21T08:46:32;95574.56;;;11.05;49.89
13029;BME280;6581;42.662;23.402;2023-02-21T08:48:59;95572.59;;;11.22;48.98
13029;BME280;6581;42.662;23.402;2023-02-21T08:51:29;95566.91;;;11.23;48.44
13029;BME280;6581;42.662;23.402;2023-02-21T08:53:57;95575.94;;;11.19;48.39
13029;BME280;6581;42.662;23.402;2023-02-21T08:56:25;95565.94;;;11.31;48.03
13029;BME280;6581;42.662;23.402;2023-02-21T08:59:17;95563.19;;;11.28;48.81
13029;BME280;6581;42.662;23.402;2023-02-21T09:01:44;95570.19;;;11.36;49.14
13029;BME280;6581;42.662;23.402;2023-02-21T09:04:11;95570.28;;;11.43;48.66
13029;BME280;6581;42.662;23.402;2023-02-21T09:06:39;95555.72;;;11.33;47.68
13029;BME280;6581;42.662;23.402;2023-02-21T09:09:06;95551.38;;;11.44;48.36
13029;BME280;6581;42.662;23.402;2023-02-21T09:11:33;95551.72;;;11.43;48.12
13029;BME280;6581;42.662;23.402;2023-02-21T09:14:00;95550.34;;;11.52;47.50
13029;BME280;6581;42.662;23.402;2023-02-21T09:16:30;95555.34;;;11.57;47.67
13029;BME280;6581;42.662;23.402;2023-02-21T09:18:59;95546.09;;;11.48;47.73
13029;BME280;6581;42.662;23.402;2023-02-21T09:21:27;95546.28;;;11.59;47.63
13029;BME280;6581;42.662;23.402;2023-02-21T09:23:56;95548.63;;;11.64;47.45
13029;BME280;6581;42.662;23.402;2023-02-21T09:26:27;95545.63;;;11.69;46.99
13029;BME280;6581;42.662;23.402;2023-02-21T09:28:57;95536.81;;;11.61;47.34
13029;BME280;6581;42.662;23.402;2023-02-21T09:31:24;95531.81;;;11.56;48.54
13029;BME280;6581;42.662;23.402;2023-02-21T09:33:51;95534.63;;;11.67;47.79
13029;BME280;6581;42.662;23.402;2023-02-21T09:36:18;95539.38;;;11.77;47.46
13029;BME280;6581;42.662;23.402;2023-02-21T09:39:11;95529.28;;;11.89;46.21
13029;BME280;6581;42.662;23.402;2023-02-21T09:41:38;95520.31;;;12.01;46.83
13029;BME280;6581;42.662;23.402;2023-02-21T09:44:12;95516.69;;;12.13;46.52
13029;BME280;6581;42.662;23.402;2023-02-21T09:46:43;95511.09;;;12.21;46.36
13029;BME280;6581;42.662;23.402;2023-02-21T09:49:14;95507.06;;;12.34;45.67
13029;BME280;6581;42.662;23.402;2023-02-21T09:51:43;95520.59;;;12.56;45.29
13029;BME280;6581;42.662;23.402;2023-02-21T09:54:18;95512.44;;;12.75;44.63
13029;BME280;6581;42.662;23.402;2023-02-21T09:57:15;95512.53;;;12.82;44.16
13029;BME280;6581;42.662;23.402;2023-02-21T09:59:44;95503.34;;;12.76;43.96
13029;BME280;6581;42.662;23.402;2023-02-21T10:02:23;95504.78;;;12.70;44.03
13029;BME280;6581;42.662;23.402;2023-02-21T10:05:03;95495.53;;;12.97;43.47
13029;BME280;6581;42.662;23.402;2023-02-21T10:08:00;95494.59;;;13.16;42.99
13029;BME280;6581;42.662;23.402;2023-02-21T10:10:37;95484.47;;;13.32;43.00
13029;BME280;6581;42.662;23.402;2023-02-21T10:13:16;95469.03;;;13.52;41.85
13029;BME280;6581;42.662;23.402;2023-02-21T10:15:50;95480.91;;;13.72;41.57
13029;BME280;6581;42.662;23.402;2023-02-21T10:18:27;95478.72;;;13.88;41.21
13029;BME280;6581;42.662;23.402;2023-02-21T10:20:58;95475.38;;;14.09;39.96
13029;BME280;6581;42.662;23.402;2023-02-21T10:23:35;95470.47;;;14.11;39.27
13029;BME280;6581;42.662;23.402;2023-02-21T10:26:08;95472.00;;;14.23;39.23
13029;BME280;6581;42.662;23.402;2023-02-21T10:28:36;95463.66;;;14.28;38.90
13029;BME280;6581;42.662;23.402;2023-02-21T10:31:07;95457.97;;;14.33;39.02
13029;BME280;6581;42.662;23.402;2023-02-21T10:33:37;95449.97;;;14.33;38.31
13029;BME280;6581;42.662;23.402;2023-02-21T10:36:11;95449.19;;;14.32;38.81
13029;BME280;6581;42.662;23.402;2023-02-21T10:38:40;95435.94;;;14.43;39.14
13029;BME280;6581;42.662;23.402;2023-02-21T10:41:11;95432.91;;;14.55;38.55
13029;BME280;6581;42.662;23.402;2023-02-21T10:43:43;95435.19;;;14.63;37.89
13029;BME280;6581;42.662;23.402;2023-02-21T10:46:16;95422.63;;;14.71;37.09
13029;BME280;6581;42.662;23.402;2023-02-21T10:48:47;95425.31;;;14.75;37.08
13029;BME280;6581;42.662;23.402;2023-02-21T10:51:27;95421.13;;;14.84;35.98
13029;BME280;6581;42.662;23.402;2023-02-21T10:54:17;95416.94;;;14.94;36.52
13029;BME280;6581;42.662;23.402;2023-02-21T10:56:47;95407.75;;;15.13;35.76
13029;BME280;6581;42.662;23.402;2023-02-21T10:59:42;95390.22;;;15.19;34.46
13029;BME280;6581;42.662;23.402;2023-02-21T11:02:33;95387.53;;;15.33;35.32
13029;BME280;6581;42.662;23.402;2023-02-21T11:05:11;95383.69;;;15.44;33.77
13029;BME280;6581;42.662;23.402;2023-02-21T11:07:39;95381.41;;;15.57;33.53
13029;BME280;6581;42.662;23.402;2023-02-21T11:10:29;95379.41;;;15.79;33.17
13029;BME280;6581;42.662;23.402;2023-02-21T11:13:11;95370.94;;;15.98;32.92
13029;BME280;6581;42.662;23.402;2023-02-21T11:15:39;95354.47;;;16.07;32.68
13029;BME280;6581;42.662;23.402;2023-02-21T11:18:15;95366.22;;;16.23;32.72
13029;BME280;6581;42.662;23.402;2023-02-21T11:20:44;95350.13;;;16.34;31.15
13029;BME280;6581;42.662;23.402;2023-02-21T11:23:21;95349.56;;;16.60;28.96
13029;BME280;6581;42.662;23.402;2023-02-21T11:25:51;95347.91;;;16.77;28.32
13029;BME280;6581;42.662;23.402;2023-02-21T11:28:24;95340.19;;;16.86;28.23
13029;BME280;6581;42.662;23.402;2023-02-21T11:31:10;95343.91;;;16.99;28.63
13029;BME280;6581;42.662;23.402;2023-02-21T11:33:43;95348.41;;;17.09;28.46
13029;BME280;6581;42.662;23.402;2023-02-21T11:36:17;95329.97;;;17.15;27.25
13029;BME280;6581;42.662;23.402;2023-02-21T11:39:00;95328.00;;;17.19;27.12
13029;BME280;6581;42.662;23.402;2023-02-21T11:41:29;95325.19;;;17.33;26.88
13029;BME280;6581;42.662;23.402;2023-02-21T11:43:57;95326.28;;;17.39;27.03
13029;BME280;6581;42.662;23.402;2023-02-21T11:46:35;95327.31;;;17.49;27.18
13029;BME280;6581;42.662;23.402;2023-02-21T11:49:10;95318.97;;;17.43;26.66
13029;BME280;6581;42.662;23.402;2023-02-21T11:51:45;95310.84;;;17.50;27.20
13029;BME280;6581;42.662;23.402;2023-02-21T11:54:13;95310.50;;;17.48;26.77
13029;BME280;6581;42.662;23.402;2023-02-21T11:56:47;95303.59;;;17.47;27.43
13029;BME280;6581;42.662;23.402;2023-02-21T11:59:29;95301.94;;;17.60;27.57
13029;BME280;6581;42.662;23.402;2023-02-21T12:02:14;95293.22;;;17.53;26.94
13029;BME280;6581;42.662;23.402;2023-02-21T12:04:58;95285.19;;;17.53;27.16
13029;BME280;6581;42.662;23.402;2023-02-21T12:07:36;95280.88;;;17.62;27.53
13029;BME280;6581;42.662;23.402;2023-02-21T12:10:22;95283.44;;;17.73;27.76
13029;BME280;6581;42.662;23.402;2023-02-21T12:12:59;95281.84;;;17.76;27.51
13029;BME280;6581;42.662;23.402;2023-02-21T12:15:39;95281.41;;;17.81;26.95
13029;BME280;6581;42.662;23.402;2023-02-21T12:18:38;95264.31;;;17.71;27.34
13029;BME280;6581;42.662;23.402;2023-02-21T12:21:19;95261.69;;;17.67;27.11
13029;BME280;6581;42.662;23.402;2023-02-21T12:23:56;95243.69;;;17.68;27.22
13029;BME280;6581;42.662;23.402;2023-02-21T12:26:32;95241.03;;;17.64;27.45
13029;BME280;6581;42.662;23.402;2023-02-21T12:29:17;95235.69;;;17.64;27.82
13029;BME280;6581;42.662;23.402;2023-02-21T12:32:02;95238.44;;;17.57;27.83
13029;BME280;6581;42.662;23.402;2023-02-21T12:34:42;95229.63;;;17.60;27.54
13029;BME280;6581;42.662;23.402;2023-02-21T12:37:41;95235.28;;;17.66;27.87
13029;BME280;6581;42.662;23.402;2023-02-21T12:40:19;95239.09;;;17.68;27.69
13029;BME280;6581;42.662;23.402;2023-02-21T12:42:58;95223.69;;;17.76;27.76
13029;BME280;6581;42.662;23.402;2023-02-21T12:45:38;95228.19;;;17.83;27.72
13029;BME280;6581;42.662;23.402;2023-02-21T12:48:15;95220.44;;;17.88;27.92
13029;BME280;6581;42.662;23.402;2023-02-21T12:50:46;95217.34;;;17.90;28.18
13029;BME280;6581;42.662;23.402;2023-02-21T12:53:40;95224.88;;;17.98;28.10
13029;BME280;6581;42.662;23.402;2023-02-21T12:56:12;95210.31;;;17.99;27.66
13029;BME280;6581;42.662;23.402;2023-02-21T12:58:44;95213.94;;;18.12;27.97
13029;BME280;6581;42.662;23.402;2023-02-21T13:01:15;95216.97;;;18.14;27.36
13029;BME280;6581;42.662;23.402;2023-02-21T13:03:54;95204.03;;;18.33;27.49
13029;BME280;6581;42.662;23.402;2023-02-21T13:06:29;95212.59;;;18.47;26.83
13029;BME280;6581;42.662;23.402;2023-02-21T13:09:07;95214.19;;;18.45;26.83
13029;BME280;6581;42.662;23.402;2023-02-21T13:11:40;95201.47;;;18.49;26.57
13029;BME280;6581;42.662;23.402;2023-02-21T13:14:12;95197.38;;;18.41;26.85
13029;BME280;6581;42.662;23.402;2023-02-21T13:16:40;95206.88;;;18.45;26.82
13029;BME280;6581;42.662;23.402;2023-02-21T13:19:11;95203.50;;;18.41;26.95
13029;BME280;6581;42.662;23.402;2023-02-21T13:21:48;95196.47;;;18.28;26.74
13029;BME280;6581;42.662;23.402;2023-02-21T13:24:27;95199.25;;;18.44;27.35
13029;BME280;6581;42.662;23.402;2023-02-21T13:30:12;95198.09;;;18.45;26.61
13029;BME280;6581;42.662;23.402;2023-02-21T13:32:49;95190.34;;;18.50;26.57
13029;BME280;6581;42.662;23.402;2023-02-21T13:35:31;95191.47;;;18.73;26.37
13029;BME280;6581;42.662;23.402;2023-02-21T13:38:00;95190.06;;;18.88;26.20
13029;BME280;6581;42.662;23.402;2023-02-21T13:40:34;95182.19;;;19.17;25.96
13029;BME280;6581;42.662;23.402;2023-02-21T13:43:05;95175.84;;;19.27;25.65
13029;BME280;6581;42.662;23.402;2023-02-21T13:45:33;95179.41;;;19.20;25.60
13029;BME280;6581;42.662;23.402;2023-02-21T13:48:30;95176.97;;;19.10;26.26
13029;BME280;6581;42.662;23.402;2023-02-21T13:51:47;95174.41;;;19.02;26.75
13029;BME280;6581;42.662;23.402;2023-02-21T13:54:21;95175.66;;;18.98;26.09
13029;BME280;6581;42.662;23.402;2023-02-21T13:57:28;95167.81;;;18.87;26.35
13029;BME280;6581;42.662;23.402;2023-02-21T13:59:55;95164.31;;;18.90;26.78
13029;BME280;6581;42.662;23.402;2023-02-21T14:02:26;95162.88;;;18.86;26.29
13029;BME280;6581;42.662;23.402;2023-02-21T14:05:05;95165.06;;;18.71;26.33
13029;BME280;6581;42.662;23.402;2023-02-21T14:07:47;95155.78;;;18.76;26.06
13029;BME280;6581;42.662;23.402;2023-02-21T14:10:22;95166.38;;;18.83;26.98
13029;BME280;6581;42.662;23.402;2023-02-21T14:12:53;95161.97;;;18.73;26.75
13029;BME280;6581;42.662;23.402;2023-02-21T14:15:21;95157.28;;;18.77;26.45
13029;BME280;6581;42.662;23.402;2023-02-21T14:17:50;95159.91;;;18.80;26.59
13029;BME280;6581;42.662;23.402;2023-02-21T14:20:20;95165.34;;;18.77;26.35
13029;BME280;6581;42.662;23.402;2023-02-21T14:22:50;95157.38;;;18.73;26.91
13029;BME280;6581;42.662;23.402;2023-02-21T14:25:21;95153.91;;;18.73;27.23
13029;BME280;6581;42.662;23.402;2023-02-21T14:27:51;95157.16;;;18.64;26.79
13029;BME280;6581;42.662;23.402;2023-02-21T14:30:31;95160.59;;;18.65;26.99
13029;BME280;6581;42.662;23.402;2023-02-21T14:33:20;95159.41;;;18.66;26.24
13029;BME280;6581;42.662;23.402;2023-02-21T14:35:55;95154.53;;;18.61;25.98
13029;BME280;6581;42.662;23.402;2023-02-21T14:38:27;95145.97;;;18.46;25.76
13029;BME280;6581;42.662;23.402;2023-02-21T14:41:22;95148.88;;;18.55;25.98
13029;BME280;6581;42.662;23.402;2023-02-21T14:44:02;95152.75;;;18.54;25.87
13029;BME280;6581;42.662;23.402;2023-02-21T14:47:10;95149.75;;;18.48;25.87
13029;BME280;6581;42.662;23.402;2023-02-21T14:49:55;95144.91;;;18.40;25.66
13029;BME280;6581;42.662;23.402;2023-02-21T14:52:42;95146.16;;;18.35;25.78
13029;BME280;6581;42.662;23.402;2023-02-21T14:55:43;95143.06;;;18.37;26.07
13029;BME280;6581;42.662;23.402;2023-02-21T15:01:40;95147.75;;;18.33;25.55
13029;BME280;6581;42.662;23.402;2023-02-21T15:04:14;95149.84;;;18.22;25.67
13029;BME280;6581;42.662;23.402;2023-02-21T15:07:00;95149.13;;;18.17;25.73
13029;BME280;6581;42.662;23.402;2023-02-21T15:09:29;95137.44;;;18.08;25.85
13029;BME280;6581;42.662;23.402;2023-02-21T15:11:58;95142.91;;;18.01;25.97
13029;BME280;6581;42.662;23.402;2023-02-21T15:14:30;95138.81;;;17.93;25.91
13029;BME280;6581;42.662;23.402;2023-02-21T15:17:10;95139.69;;;17.86;26.06
13029;BME280;6581;42.662;23.402;2023-02-21T15:20:05;95139.81;;;17.79;26.64
13029;BME280;6581;42.662;23.402;2023-02-21T15:22:32;95145.34;;;17.68;26.66
13029;BME280;6581;42.662;23.402;2023-02-21T15:25:15;95146.72;;;17.50;26.69
13029;BME280;6581;42.662;23.402;2023-02-21T15:27:55;95153.69;;;17.44;26.93
13029;BME280;6581;42.662;23.402;2023-02-21T15:30:25;95152.28;;;17.36;26.84
13029;BME280;6581;42.662;23.402;2023-02-21T15:32:57;95150.81;;;17.31;27.12
13029;BME280;6581;42.662;23.402;2023-02-21T15:35:30;95147.06;;;17.25;27.03
13029;BME280;6581;42.662;23.402;2023-02-21T15:37:58;95151.75;;;17.17;27.22
13029;BME280;6581;42.662;23.402;2023-02-21T15:40:29;95161.06;;;17.09;27.32
13029;BME280;6581;42.662;23.402;2023-02-21T15:42:59;95161.53;;;17.01;27.79
13029;BME280;6581;42.662;23.402;2023-02-21T15:45:30;95162.31;;;16.98;27.43
13029;BME280;6581;42.662;23.402;2023-02-21T15:48:23;95154.41;;;16.87;27.16
13029;BME280;6581;42.662;23.402;2023-02-21T15:50:50;95157.94;;;16.80;27.64
13029;BME280;6581;42.662;23.402;2023-02-21T15:53:20;95152.38;;;16.68;27.63
13029;BME280;6581;42.662;23.402;2023-02-21T15:55:48;95153.59;;;16.60;27.45
13029;BME280;6581;42.662;23.402;2023-02-21T15:58:24;95163.91;;;16.61;27.78
13029;BME280;6581;42.662;23.402;2023-02-21T16:01:04;95155.50;;;16.56;27.56
13029;BME280;6581;42.662;23.402;2023-02-21T16:03:38;95162.06;;;16.51;27.78
13029;BME280;6581;42.662;23.402;2023-02-21T16:06:21;95159.84;;;16.42;27.81
13029;BME280;6581;42.662;23.402;2023-02-21T16:08:56;95163.38;;;16.36;27.66
13029;BME280;6581;42.662;23.402;2023-02-21T16:11:41;95171.06;;;16.27;27.91
13029;BME280;6581;42.662;23.402;2023-02-21T16:14:19;95177.16;;;16.27;28.08
13029;BME280;6581;42.662;23.402;2023-02-21T16:16:47;95174.56;;;16.20;28.04
13029;BME280;6581;42.662;23.402;2023-02-21T16:19:20;95186.78;;;16.21;28.11
13029;BME280;6581;42.662;23.402;2023-02-21T16:22:21;95180.31;;;16.19;28.19
13029;BME280;6581;42.662;23.402;2023-02-21T16:24:49;95184.19;;;16.11;28.13
13029;BME280;6581;42.662;23.402;2023-02-21T16:27:30;95187.69;;;16.04;28.72
13029;BME280;6581;42.662;23.402;2023-02-21T16:29:59;95175.19;;;15.90;28.39
13029;BME280;6581;42.662;23.402;2023-02-21T16:32:26;95184.34;;;15.93;28.72
13029;BME280;6581;42.662;23.402;2023-02-21T16:34:53;95188.63;;;15.83;28.68
13029;BME280;6581;42.662;23.402;2023-02-21T16:37:21;95188.66;;;15.80;29.22
13029;BME280;6581;42.662;23.402;2023-02-21T16:39:48;95188.28;;;15.78;28.92
13029;BME280;6581;42.662;23.402;2023-02-21T16:42:15;95190.25;;;15.67;29.98
13029;BME280;6581;42.662;23.402;2023-02-21T16:44:43;95199.47;;;15.55;30.15
13029;BME280;6581;42.662;23.402;2023-02-21T16:47:14;95193.81;;;15.42;30.03
13029;BME280;6581;42.662;23.402;2023-02-21T16:49:41;95200.34;;;15.34;30.23
13029;BME280;6581;42.662;23.402;2023-02-21T16:52:10;95205.34;;;15.25;30.60
13029;BME280;6581;42.662;23.402;2023-02-21T16:54:39;95200.44;;;15.17;30.81
13029;BME280;6581;42.662;23.402;2023-02-21T16:57:06;95206.16;;;15.08;30.57
13029;BME280;6581;42.662;23.402;2023-02-21T16:59:34;95205.78;;;15.09;30.63
13029;BME280;6581;42.662;23.402;2023-02-21T17:02:01;95197.00;;;15.09;30.60
13029;BME280;6581;42.662;23.402;2023-02-21T17:04:30;95196.66;;;15.07;30.11
13029;BME280;6581;42.662;23.402;2023-02-21T17:07:01;95205.00;;;15.16;29.52
13029;BME280;6581;42.662;23.402;2023-02-21T17:09:30;95206.09;;;15.22;29.75
13029;BME280;6581;42.662;23.402;2023-02-21T17:11:58;95211.44;;;15.22;29.87
13029;BME280;6581;42.662;23.402;2023-02-21T17:14:26;95207.28;;;15.21;29.78
13029;BME280;6581;42.662;23.402;2023-02-21T17:16:54;95204.97;;;15.20;29.82
13029;BME280;6581;42.662;23.402;2023-02-21T17:19:21;95216.34;;;15.31;29.29
13029;BME280;6581;42.662;23.402;2023-02-21T17:21:54;95202.59;;;15.39;29.70
13029;BME280;6581;42.662;23.402;2023-02-21T17:24:23;95212.84;;;15.44;28.69